sensor_id;sensor_type;location;lat;lon;timestamp;pressure;altitude;pressure_sealevel;temperature;humidity
74778;BME280;63298;53.164;8.610;2023-02-15T05:07:04;102979.25;;;2.20;80.91
74778;BME280;63298;53.164;8.610;2023-02-15T05:09:29;102968.22;;;2.22;81.19
74778;BME280;63298;53.164;8.610;2023-02-15T05:11:55;102951.53;;;2.15;80.49
74778;BME280;63298;53.164;8.610;2023-02-15T05:14:20;102958.84;;;2.14;80.79
74778;BME280;63298;53.164;8.610;2023-02-15T05:16:46;102954.38;;;2.13;80.99
74778;BME280;63298;53.164;8.610;2023-02-15T05:19:11;102943.16;;;2.07;81.07
74778;BME280;63298;53.164;8.610;2023-02-15T05:21:36;102956.38;;;2.11;81.20
74778;BME280;63298;53.164;8.610;2023-02-15T05:24:02;102934.13;;;2.06;81.13
74778;BME280;63298;53.164;8.610;2023-02-15T05:26:28;102951.66;;;2.13;81.22
74778;BME280;63298;53.164;8.610;2023-02-15T05:28:53;102942.53;;;2.03;81.05
74778;BME280;63298;53.164;8.610;2023-02-15T05:31:19;102939.22;;;2.00;80.98
74778;BME280;63298;53.164;8.610;2023-02-15T05:33:44;102950.72;;;2.03;81.36
74778;BME280;63298;53.164;8.610;2023-02-15T05:36:10;102955.44;;;2.01;81.25
74778;BME280;63298;53.164;8.610;2023-02-15T05:38:36;102949.53;;;1.96;80.90
74778;BME280;63298;53.164;8.610;2023-02-15T05:41:01;102953.22;;;1.95;81.30
74778;BME280;63298;53.164;8.610;2023-02-15T05:43:27;102944.59;;;1.90;81.43
74778;BME280;63298;53.164;8.610;2023-02-15T05:45:54;102950.78;;;1.92;80.92
74778;BME280;63298;53.164;8.610;2023-02-15T05:48:20;102933.09;;;1.87;81.06
74778;BME280;63298;53.164;8.610;2023-02-15T05:50:46;102934.59;;;1.80;81.63
74778;BME280;63298;53.164;8.610;2023-02-15T05:53:12;102940.63;;;1.83;81.27
74778;BME280;63298;53.164;8.610;2023-02-15T05:55:38;102945.34;;;1.81;81.36
74778;BME280;63298;53.164;8.610;2023-02-15T05:58:05;102941.66;;;1.82;81.52
74778;BME280;63298;53.164;8.610;2023-02-15T06:00:30;102930.41;;;1.76;81.30
74778;BME280;63298;53.164;8.610;2023-02-15T06:02:56;102939.91;;;1.81;80.85
74778;BME280;63298;53.164;8.610;2023-02-15T06:05:21;102923.81;;;1.78;81.23
74778;BME280;63298;53.164;8.610;2023-02-15T06:08:25;102932.84;;;1.90;81.47
74778;BME280;63298;53.164;8.610;2023-02-15T06:10:53;102940.88;;;1.91;81.28
74778;BME280;63298;53.164;8.610;2023-02-15T06:13:18;102933.69;;;1.90;81.02
74778;BME280;63298;53.164;8.610;2023-02-15T06:15:44;102922.94;;;1.89;81.13
74778;BME280;63298;53.164;8.610;2023-02-15T06:18:09;102923.81;;;1.89;81.13
74778;BME280;63298;53.164;8.610;2023-02-15T06:20:35;102920.22;;;1.89;81.08
74778;BME280;63298;53.164;8.610;2023-02-15T06:23:00;102924.53;;;1.91;81.37
74778;BME280;63298;53.164;8.610;2023-02-15T06:25:26;102933.31;;;1.95;81.17
74778;BME280;63298;53.164;8.610;2023-02-15T06:27:51;102935.03;;;1.96;81.07
74778;BME280;63298;53.164;8.610;2023-02-15T06:30:16;102929.00;;;1.92;81.14
74778;BME280;63298;53.164;8.610;2023-02-15T06:32:42;102932.56;;;1.93;81.06
74778;BME280;63298;53.164;8.610;2023-02-15T06:35:07;102939.13;;;1.90;80.75
74778;BME280;63298;53.164;8.610;2023-02-15T06:37:33;102924.78;;;1.88;80.62
74778;BME280;63298;53.164;8.610;2023-02-15T06:39:58;102921.19;;;1.88;81.30
74778;BME280;63298;53.164;8.610;2023-02-15T06:42:24;102923.09;;;1.87;81.22
74778;BME280;63298;53.164;8.610;2023-02-15T06:44:50;102916.41;;;1.80;80.87
74778;BME280;63298;53.164;8.610;2023-02-15T06:47:15;102921.25;;;1.77;81.04
74778;BME280;63298;53.164;8.610;2023-02-15T06:49:41;102921.88;;;1.69;81.60
74778;BME280;63298;53.164;8.610;2023-02-15T06:52:06;102915.56;;;1.68;80.92
74778;BME280;63298;53.164;8.610;2023-02-15T06:54:32;102914.97;;;1.65;81.39
74778;BME280;63298;53.164;8.610;2023-02-15T06:56:57;102915.25;;;1.62;81.31
74778;BME280;63298;53.164;8.610;2023-02-15T06:59:22;102927.72;;;1.64;81.08
74778;BME280;63298;53.164;8.610;2023-02-15T07:01:51;102932.28;;;1.64;81.17
74778;BME280;63298;53.164;8.610;2023-02-15T07:04:16;102930.44;;;1.64;81.12
74778;BME280;63298;53.164;8.610;2023-02-15T07:06:41;102933.25;;;1.63;81.17
74778;BME280;63298;53.164;8.610;2023-02-15T07:09:07;102918.84;;;1.62;80.99
74778;BME280;63298;53.164;8.610;2023-02-15T07:11:32;102915.38;;;1.60;81.05
74778;BME280;63298;53.164;8.610;2023-02-15T07:13:57;102911.91;;;1.58;81.17
74778;BME280;63298;53.164;8.610;2023-02-15T07:16:26;102911.28;;;1.55;81.60
74778;BME280;63298;53.164;8.610;2023-02-15T07:18:53;102913.03;;;1.56;81.63
74778;BME280;63298;53.164;8.610;2023-02-15T07:21:18;102914.75;;;1.57;81.61
74778;BME280;63298;53.164;8.610;2023-02-15T07:23:43;102921.94;;;1.58;81.48
74778;BME280;63298;53.164;8.610;2023-02-15T07:26:09;102910.91;;;1.59;80.82
74778;BME280;63298;53.164;8.610;2023-02-15T07:28:35;102917.97;;;1.62;81.07
74778;BME280;63298;53.164;8.610;2023-02-15T07:31:04;102921.66;;;1.61;81.05
74778;BME280;63298;53.164;8.610;2023-02-15T07:33:31;102916.84;;;1.64;81.65
74778;BME280;63298;53.164;8.610;2023-02-15T07:35:58;102915.09;;;1.63;81.07
74778;BME280;63298;53.164;8.610;2023-02-15T07:38:26;102909.41;;;1.66;81.30
74778;BME280;63298;53.164;8.610;2023-02-15T07:40:51;102899.13;;;1.70;81.26
74778;BME280;63298;53.164;8.610;2023-02-15T07:43:22;102895.44;;;1.71;81.27
74778;BME280;63298;53.164;8.610;2023-02-15T07:45:47;102897.75;;;1.76;81.40
74778;BME280;63298;53.164;8.610;2023-02-15T07:48:12;102898.34;;;1.79;81.21
74778;BME280;63298;53.164;8.610;2023-02-15T07:50:38;102892.41;;;1.85;81.11
74778;BME280;63298;53.164;8.610;2023-02-15T07:53:03;102887.56;;;1.89;80.94
74778;BME280;63298;53.164;8.610;2023-02-15T07:55:29;102888.44;;;1.89;81.29
74778;BME280;63298;53.164;8.610;2023-02-15T07:57:55;102888.03;;;1.94;81.35
74778;BME280;63298;53.164;8.610;2023-02-15T08:00:21;102895.09;;;1.96;80.57
74778;BME280;63298;53.164;8.610;2023-02-15T08:02:54;102899.28;;;2.00;81.07
74778;BME280;63298;53.164;8.610;2023-02-15T08:05:20;102893.31;;;2.06;80.76
74778;BME280;63298;53.164;8.610;2023-02-15T08:07:45;102889.44;;;2.09;80.78
74778;BME280;63298;53.164;8.610;2023-02-15T08:10:10;102897.22;;;2.13;80.70
74778;BME280;63298;53.164;8.610;2023-02-15T08:12:35;102895.13;;;2.17;81.02
74778;BME280;63298;53.164;8.610;2023-02-15T08:15:01;102888.53;;;2.20;80.47
74778;BME280;63298;53.164;8.610;2023-02-15T08:17:26;102894.72;;;2.22;81.05
74778;BME280;63298;53.164;8.610;2023-02-15T08:19:52;102896.88;;;2.28;80.66
74778;BME280;63298;53.164;8.610;2023-02-15T08:22:17;102894.50;;;2.34;81.01
74778;BME280;63298;53.164;8.610;2023-02-15T08:24:42;102895.84;;;2.40;80.55
74778;BME280;63298;53.164;8.610;2023-02-15T08:27:10;102896.44;;;2.43;80.80
74778;BME280;63298;53.164;8.610;2023-02-15T08:29:38;102884.25;;;2.47;80.59
74778;BME280;63298;53.164;8.610;2023-02-15T08:32:07;102894.38;;;2.56;80.64
74778;BME280;63298;53.164;8.610;2023-02-15T08:34:36;102898.41;;;2.62;80.43
74778;BME280;63298;53.164;8.610;2023-02-15T08:37:02;102886.25;;;2.66;80.39
74778;BME280;63298;53.164;8.610;2023-02-15T08:39:27;102875.09;;;2.69;80.26
74778;BME280;63298;53.164;8.610;2023-02-15T08:41:53;102873.56;;;2.76;80.21
74778;BME280;63298;53.164;8.610;2023-02-15T08:44:19;102873.28;;;2.79;80.35
74778;BME280;63298;53.164;8.610;2023-02-15T08:46:46;102868.69;;;2.80;80.42
74778;BME280;63298;53.164;8.610;2023-02-15T08:49:15;102868.97;;;2.86;80.16
74778;BME280;63298;53.164;8.610;2023-02-15T08:51:42;102854.22;;;2.89;80.51
74778;BME280;63298;53.164;8.610;2023-02-15T08:54:09;102851.84;;;2.95;80.50
74778;BME280;63298;53.164;8.610;2023-02-15T08:56:41;102847.81;;;2.99;80.37
74778;BME280;63298;53.164;8.610;2023-02-15T08:59:10;102862.34;;;3.10;80.31
74778;BME280;63298;53.164;8.610;2023-02-15T09:01:39;102858.03;;;3.17;80.35
74778;BME280;63298;53.164;8.610;2023-02-15T09:04:05;102859.22;;;3.24;80.28
74778;BME280;63298;53.164;8.610;2023-02-15T09:06:32;102851.91;;;3.24;80.15
74778;BME280;63298;53.164;8.610;2023-02-15T09:08:57;102843.44;;;3.27;79.81
74778;BME280;63298;53.164;8.610;2023-02-15T09:11:25;102849.91;;;3.36;80.18
74778;BME280;63298;53.164;8.610;2023-02-15T09:14:20;102845.06;;;3.39;80.53
74778;BME280;63298;53.164;8.610;2023-02-15T09:16:47;102842.47;;;3.47;80.31
74778;BME280;63298;53.164;8.610;2023-02-15T09:19:13;102831.69;;;3.46;80.21
74778;BME280;63298;53.164;8.610;2023-02-15T09:21:38;102825.25;;;3.47;80.33
74778;BME280;63298;53.164;8.610;2023-02-15T09:24:06;102828.97;;;3.56;80.38
74778;BME280;63298;53.164;8.610;2023-02-15T09:26:36;102821.22;;;3.51;80.04
74778;BME280;63298;53.164;8.610;2023-02-15T09:29:02;102837.47;;;3.62;80.85
74778;BME280;63298;53.164;8.610;2023-02-15T09:31:31;102828.16;;;3.65;80.12
74778;BME280;63298;53.164;8.610;2023-02-15T09:33:58;102832.88;;;3.72;80.23
74778;BME280;63298;53.164;8.610;2023-02-15T09:36:26;102819.22;;;3.72;80.33
74778;BME280;63298;53.164;8.610;2023-02-15T09:41:41;102835.91;;;3.88;80.16
74778;BME280;63298;53.164;8.610;2023-02-15T09:55:51;102841.47;;;4.16;80.41
74778;BME280;63298;53.164;8.610;2023-02-15T10:04:36;102844.72;;;4.48;80.30
74778;BME280;63298;53.164;8.610;2023-02-15T10:09:49;102847.41;;;4.67;80.22
74778;BME280;63298;53.164;8.610;2023-02-15T10:15:00;102832.50;;;4.79;79.94
74778;BME280;63298;53.164;8.610;2023-02-15T10:20:23;102844.41;;;4.98;80.33
74778;BME280;63298;53.164;8.610;2023-02-15T10:22:59;102830.50;;;5.09;80.25
74778;BME280;63298;53.164;8.610;2023-02-15T10:28:47;102811.88;;;5.22;79.64
74778;BME280;63298;53.164;8.610;2023-02-15T10:39:27;102794.53;;;5.49;80.12
74778;BME280;63298;53.164;8.610;2023-02-15T10:50:44;102806.03;;;6.05;78.80
74778;BME280;63298;53.164;8.610;2023-02-15T11:06:44;102794.53;;;6.54;78.68
74778;BME280;63298;53.164;8.610;2023-02-15T11:09:14;102781.34;;;6.57;78.82
74778;BME280;63298;53.164;8.610;2023-02-15T11:11:41;102786.56;;;6.68;78.58
74778;BME280;63298;53.164;8.610;2023-02-15T11:14:19;102779.22;;;6.77;79.07
74778;BME280;63298;53.164;8.610;2023-02-15T11:16:51;102767.97;;;6.88;78.56
74778;BME280;63298;53.164;8.610;2023-02-15T11:19:29;102775.41;;;7.04;78.55
74778;BME280;63298;53.164;8.610;2023-02-15T11:22:02;102772.38;;;7.15;78.96
74778;BME280;63298;53.164;8.610;2023-02-15T11:24:30;102764.31;;;7.21;78.81
74778;BME280;63298;53.164;8.610;2023-02-15T11:27:03;102765.34;;;7.28;78.01
74778;BME280;63298;53.164;8.610;2023-02-15T11:29:40;102761.94;;;7.43;78.58
74778;BME280;63298;53.164;8.610;2023-02-15T11:35:00;102743.94;;;7.56;78.32
74778;BME280;63298;53.164;8.610;2023-02-15T11:37:47;102744.13;;;7.71;78.15
74778;BME280;63298;53.164;8.610;2023-02-15T11:40:35;102746.38;;;7.84;78.49
74778;BME280;63298;53.164;8.610;2023-02-15T11:43:05;102745.16;;;7.94;78.35
74778;BME280;63298;53.164;8.610;2023-02-15T11:45:33;102741.19;;;7.97;78.52
74778;BME280;63298;53.164;8.610;2023-02-15T11:48:00;102740.31;;;8.04;78.48
74778;BME280;63298;53.164;8.610;2023-02-15T11:50:32;102739.63;;;8.18;78.54
74778;BME280;63298;53.164;8.610;2023-02-15T11:53:01;102737.38;;;8.30;78.01
74778;BME280;63298;53.164;8.610;2023-02-15T12:00:58;102717.88;;;8.56;77.90
74778;BME280;63298;53.164;8.610;2023-02-15T12:06:03;102705.09;;;8.71;77.32
74778;BME280;63298;53.164;8.610;2023-02-15T12:08:52;102702.50;;;8.78;77.98
74778;BME280;63298;53.164;8.610;2023-02-15T12:11:37;102703.00;;;8.81;77.24
74778;BME280;63298;53.164;8.610;2023-02-15T12:14:12;102696.41;;;8.90;77.30
74778;BME280;63298;53.164;8.610;2023-02-15T12:21:51;102693.13;;;9.18;77.63
74778;BME280;63298;53.164;8.610;2023-02-15T12:27:18;102691.69;;;9.30;76.92
74778;BME280;63298;53.164;8.610;2023-02-15T12:29:48;102682.00;;;9.34;76.95
74778;BME280;63298;53.164;8.610;2023-02-15T12:32:30;102680.97;;;9.35;76.49
74778;BME280;63298;53.164;8.610;2023-02-15T12:35:01;102667.69;;;9.38;76.90
74778;BME280;63298;53.164;8.610;2023-02-15T12:37:31;102671.25;;;9.47;76.49
74778;BME280;63298;53.164;8.610;2023-02-15T12:40:10;102664.31;;;9.51;76.97
74778;BME280;63298;53.164;8.610;2023-02-15T12:42:44;102660.31;;;9.53;76.63
74778;BME280;63298;53.164;8.610;2023-02-15T12:45:27;102657.00;;;9.58;76.18
74778;BME280;63298;53.164;8.610;2023-02-15T12:48:17;102656.56;;;9.69;76.09
74778;BME280;63298;53.164;8.610;2023-02-15T12:50:49;102649.28;;;9.76;76.45
74778;BME280;63298;53.164;8.610;2023-02-15T12:53:30;102640.34;;;9.89;76.46
74778;BME280;63298;53.164;8.610;2023-02-15T12:55:58;102651.78;;;10.01;75.94
74778;BME280;63298;53.164;8.610;2023-02-15T12:58:28;102636.44;;;9.98;75.84
74778;BME280;63298;53.164;8.610;2023-02-15T13:03:35;102643.50;;;10.15;76.07
74778;BME280;63298;53.164;8.610;2023-02-15T13:06:03;102651.03;;;10.21;75.50
74778;BME280;63298;53.164;8.610;2023-02-15T13:09:20;102647.06;;;10.24;74.71
74778;BME280;63298;53.164;8.610;2023-02-15T13:11:45;102641.25;;;10.33;75.17
74778;BME280;63298;53.164;8.610;2023-02-15T13:14:24;102639.44;;;10.41;75.55
74778;BME280;63298;53.164;8.610;2023-02-15T13:16:52;102635.44;;;10.43;75.62
74778;BME280;63298;53.164;8.610;2023-02-15T13:19:23;102630.00;;;10.50;75.40
74778;BME280;63298;53.164;8.610;2023-02-15T13:21:52;102633.69;;;10.57;74.69
74778;BME280;63298;53.164;8.610;2023-02-15T13:24:22;102627.13;;;10.58;74.55
74778;BME280;63298;53.164;8.610;2023-02-15T13:26:49;102623.34;;;10.59;74.78
74778;BME280;63298;53.164;8.610;2023-02-15T13:29:25;102619.31;;;10.61;75.51
74778;BME280;63298;53.164;8.610;2023-02-15T13:31:52;102620.44;;;10.67;75.23
74778;BME280;63298;53.164;8.610;2023-02-15T13:52:39;102587.56;;;11.08;73.02
74778;BME280;63298;53.164;8.610;2023-02-15T14:04:03;102576.78;;;11.34;73.15
74778;BME280;63298;53.164;8.610;2023-02-15T14:09:35;102584.91;;;11.42;72.54
74778;BME280;63298;53.164;8.610;2023-02-15T14:12:42;102579.13;;;11.37;72.80
74778;BME280;63298;53.164;8.610;2023-02-15T14:20:44;102571.50;;;11.39;72.86
74778;BME280;63298;53.164;8.610;2023-02-15T14:23:26;102571.50;;;11.39;72.88
74778;BME280;63298;53.164;8.610;2023-02-15T14:29:01;102563.84;;;11.41;72.84
74778;BME280;63298;53.164;8.610;2023-02-15T14:31:41;102566.84;;;11.46;72.84
74778;BME280;63298;53.164;8.610;2023-02-15T14:34:29;102560.69;;;11.44;72.14
74778;BME280;63298;53.164;8.610;2023-02-15T14:36:56;102562.78;;;11.42;72.69
74778;BME280;63298;53.164;8.610;2023-02-15T14:39:43;102560.44;;;11.39;72.77
74778;BME280;63298;53.164;8.610;2023-02-15T14:48:01;102560.91;;;11.21;73.15
74778;BME280;63298;53.164;8.610;2023-02-15T14:53:16;102571.25;;;11.13;72.28
74778;BME280;63298;53.164;8.610;2023-02-15T14:55:41;102565.66;;;11.06;73.35
74778;BME280;63298;53.164;8.610;2023-02-15T14:58:13;102569.41;;;10.99;72.91
74778;BME280;63298;53.164;8.610;2023-02-15T15:00:41;102559.16;;;10.93;73.13
74778;BME280;63298;53.164;8.610;2023-02-15T15:03:18;102563.19;;;10.90;72.88
74778;BME280;63298;53.164;8.610;2023-02-15T15:05:51;102547.66;;;10.89;72.84
74778;BME280;63298;53.164;8.610;2023-02-15T15:08:41;102551.47;;;10.88;72.73
74778;BME280;63298;53.164;8.610;2023-02-15T15:11:43;102548.25;;;10.85;71.96
74778;BME280;63298;53.164;8.610;2023-02-15T15:14:10;102537.13;;;10.78;72.91
74778;BME280;63298;53.164;8.610;2023-02-15T15:19:02;102526.69;;;10.73;72.91
74778;BME280;63298;53.164;8.610;2023-02-15T15:41:19;102509.84;;;10.47;72.59
74778;BME280;63298;53.164;8.610;2023-02-15T15:44:20;102520.59;;;10.42;72.31
74778;BME280;63298;53.164;8.610;2023-02-15T15:47:27;102515.88;;;10.36;72.47
74778;BME280;63298;53.164;8.610;2023-02-15T15:49:59;102504.09;;;10.27;73.29
74778;BME280;63298;53.164;8.610;2023-02-15T15:52:26;102505.53;;;10.23;73.58
74778;BME280;63298;53.164;8.610;2023-02-15T15:54:57;102500.59;;;10.19;73.07
74778;BME280;63298;53.164;8.610;2023-02-15T15:57:30;102503.91;;;10.14;73.02
74778;BME280;63298;53.164;8.610;2023-02-15T15:59:57;102491.06;;;10.07;73.33
74778;BME280;63298;53.164;8.610;2023-02-15T16:02:22;102490.78;;;10.02;73.52
74778;BME280;63298;53.164;8.610;2023-02-15T16:04:48;102495.66;;;10.00;73.72
74778;BME280;63298;53.164;8.610;2023-02-15T16:07:22;102495.38;;;9.94;73.06
74778;BME280;63298;53.164;8.610;2023-02-15T16:12:20;102492.47;;;9.81;72.92
74778;BME280;63298;53.164;8.610;2023-02-15T16:14:46;102495.22;;;9.81;73.65
74778;BME280;63298;53.164;8.610;2023-02-15T16:17:23;102484.50;;;9.72;73.04
74778;BME280;63298;53.164;8.610;2023-02-15T16:19:49;102486.75;;;9.68;73.58
74778;BME280;63298;53.164;8.610;2023-02-15T16:22:19;102495.78;;;9.62;73.37
74778;BME280;63298;53.164;8.610;2023-02-15T16:24:55;102496.84;;;9.61;74.29
74778;BME280;63298;53.164;8.610;2023-02-15T16:27:33;102493.13;;;9.54;74.16
74778;BME280;63298;53.164;8.610;2023-02-15T16:30:26;102501.97;;;9.49;74.03
74778;BME280;63298;53.164;8.610;2023-02-15T16:33:12;102504.13;;;9.39;74.04
74778;BME280;63298;53.164;8.610;2023-02-15T16:35:57;102521.91;;;9.37;73.68
74778;BME280;63298;53.164;8.610;2023-02-15T16:41:14;102511.69;;;9.23;74.31
74778;BME280;63298;53.164;8.610;2023-02-15T16:43:43;102509.34;;;9.20;73.63
74778;BME280;63298;53.164;8.610;2023-02-15T16:46:31;102519.19;;;9.14;73.65
74778;BME280;63298;53.164;8.610;2023-02-15T16:49:00;102506.00;;;9.09;74.11
74778;BME280;63298;53.164;8.610;2023-02-15T16:51:28;102510.16;;;9.05;74.46
74778;BME280;63298;53.164;8.610;2023-02-15T16:53:56;102501.78;;;8.99;74.67
74778;BME280;63298;53.164;8.610;2023-02-15T16:56:25;102505.09;;;8.94;75.16
74778;BME280;63298;53.164;8.610;2023-02-15T16:58:53;102505.66;;;8.90;74.91
74778;BME280;63298;53.164;8.610;2023-02-15T17:01:21;102514.28;;;8.87;75.03
74778;BME280;63298;53.164;8.610;2023-02-15T17:03:51;102501.81;;;8.76;75.30
74778;BME280;63298;53.164;8.610;2023-02-15T17:06:37;102509.38;;;8.74;74.49
74778;BME280;63298;53.164;8.610;2023-02-15T17:09:14;102508.44;;;8.67;74.77
74778;BME280;63298;53.164;8.610;2023-02-15T17:11:42;102511.34;;;8.65;74.88
74778;BME280;63298;53.164;8.610;2023-02-15T17:14:13;102505.72;;;8.59;74.96
74778;BME280;63298;53.164;8.610;2023-02-15T17:16:45;102503.34;;;8.56;75.15
74778;BME280;63298;53.164;8.610;2023-02-15T17:19:29;102502.00;;;8.52;75.49
74778;BME280;63298;53.164;8.610;2023-02-15T17:21:57;102490.00;;;8.45;75.25
74778;BME280;63298;53.164;8.610;2023-02-15T17:26:57;102488.34;;;8.36;75.53
74778;BME280;63298;53.164;8.610;2023-02-15T17:29:32;102505.72;;;8.36;75.31
74778;BME280;63298;53.164;8.610;2023-02-15T17:31:58;102500.59;;;8.33;75.51
74778;BME280;63298;53.164;8.610;2023-02-15T17:37:32;102483.06;;;8.26;75.32
74778;BME280;63298;53.164;8.610;2023-02-15T17:39:57;102491.47;;;8.24;75.63
74778;BME280;63298;53.164;8.610;2023-02-15T17:42:23;102480.16;;;8.19;75.69
74778;BME280;63298;53.164;8.610;2023-02-15T17:44:49;102483.47;;;8.15;75.88
74778;BME280;63298;53.164;8.610;2023-02-15T17:47:22;102481.09;;;8.12;75.92
74778;BME280;63298;53.164;8.610;2023-02-15T17:49:48;102478.50;;;8.10;75.73
74778;BME280;63298;53.164;8.610;2023-02-15T17:55:21;102493.66;;;8.06;75.65
74778;BME280;63298;53.164;8.610;2023-02-15T17:57:47;102483.56;;;7.99;75.65
74778;BME280;63298;53.164;8.610;2023-02-15T18:00:14;102491.81;;;7.99;75.71
74778;BME280;63298;53.164;8.610;2023-02-15T18:02:39;102479.81;;;7.92;75.75
74778;BME280;63298;53.164;8.610;2023-02-15T18:05:12;102476.59;;;7.88;75.93
74778;BME280;63298;53.164;8.610;2023-02-15T18:07:38;102485.00;;;7.87;76.24
74778;BME280;63298;53.164;8.610;2023-02-15T18:10:15;102481.56;;;7.85;75.92
74778;BME280;63298;53.164;8.610;2023-02-15T18:12:40;102471.63;;;7.84;75.56
74778;BME280;63298;53.164;8.610;2023-02-15T18:15:06;102468.56;;;7.78;75.88
74778;BME280;63298;53.164;8.610;2023-02-15T18:17:41;102468.72;;;7.77;75.84
74778;BME280;63298;53.164;8.610;2023-02-15T18:22:43;102471.84;;;7.74;75.80
74778;BME280;63298;53.164;8.610;2023-02-15T18:25:13;102473.03;;;7.71;75.84
74778;BME280;63298;53.164;8.610;2023-02-15T18:27:38;102480.44;;;7.71;75.92
74778;BME280;63298;53.164;8.610;2023-02-15T18:30:05;102471.53;;;7.69;75.79
74778;BME280;63298;53.164;8.610;2023-02-15T18:32:34;102480.63;;;7.69;75.80
74778;BME280;63298;53.164;8.610;2023-02-15T18:35:02;102468.63;;;7.62;75.58
74778;BME280;63298;53.164;8.610;2023-02-15T18:37:30;102487.16;;;7.60;75.89
74778;BME280;63298;53.164;8.610;2023-02-15T18:39:56;102478.59;;;7.55;76.39
74778;BME280;63298;53.164;8.610;2023-02-15T18:42:23;102485.28;;;7.61;76.18
74778;BME280;63298;53.164;8.610;2023-02-15T18:44:49;102484.09;;;7.55;76.31
74778;BME280;63298;53.164;8.610;2023-02-15T18:47:17;102481.22;;;7.49;76.08
74778;BME280;63298;53.164;8.610;2023-02-15T18:49:43;102496.66;;;7.50;76.20
74778;BME280;63298;53.164;8.610;2023-02-15T18:52:21;102491.16;;;7.50;76.33
74778;BME280;63298;53.164;8.610;2023-02-15T18:54:52;102491.50;;;7.47;76.33
74778;BME280;63298;53.164;8.610;2023-02-15T18:57:17;102488.91;;;7.45;76.28
74778;BME280;63298;53.164;8.610;2023-02-15T18:59:43;102505.75;;;7.42;76.19
74778;BME280;63298;53.164;8.610;2023-02-15T19:02:13;102499.56;;;7.40;76.22
74778;BME280;63298;53.164;8.610;2023-02-15T19:04:39;102503.03;;;7.34;76.60
74778;BME280;63298;53.164;8.610;2023-02-15T19:07:04;102509.72;;;7.31;76.38
74778;BME280;63298;53.164;8.610;2023-02-15T19:09:30;102497.56;;;7.26;76.06
74778;BME280;63298;53.164;8.610;2023-02-15T19:11:58;102498.44;;;7.18;76.49
74778;BME280;63298;53.164;8.610;2023-02-15T19:14:27;102509.91;;;7.22;76.65
74778;BME280;63298;53.164;8.610;2023-02-15T19:16:54;102501.19;;;7.10;76.48
74778;BME280;63298;53.164;8.610;2023-02-15T19:19:20;102510.97;;;7.13;76.65
74778;BME280;63298;53.164;8.610;2023-02-15T19:21:45;102515.75;;;7.11;76.39
74778;BME280;63298;53.164;8.610;2023-02-15T19:24:22;102504.78;;;7.03;76.78
74778;BME280;63298;53.164;8.610;2023-02-15T19:26:49;102498.81;;;6.99;76.73
74778;BME280;63298;53.164;8.610;2023-02-15T19:29:20;102498.97;;;6.98;76.90
74778;BME280;63298;53.164;8.610;2023-02-15T19:31:53;102499.50;;;6.93;77.00
74778;BME280;63298;53.164;8.610;2023-02-15T19:34:18;102503.94;;;6.94;76.35
74778;BME280;63298;53.164;8.610;2023-02-15T19:36:46;102496.25;;;6.89;76.88
74778;BME280;63298;53.164;8.610;2023-02-15T19:39:24;102502.06;;;6.86;76.80
74778;BME280;63298;53.164;8.610;2023-02-15T19:41:51;102501.38;;;6.84;77.18
74778;BME280;63298;53.164;8.610;2023-02-15T19:44:16;102493.69;;;6.80;76.85
74778;BME280;63298;53.164;8.610;2023-02-15T19:46:42;102503.59;;;6.81;77.19
74778;BME280;63298;53.164;8.610;2023-02-15T19:49:08;102488.00;;;6.73;76.51
74778;BME280;63298;53.164;8.610;2023-02-15T19:51:34;102485.28;;;6.65;76.52
74778;BME280;63298;53.164;8.610;2023-02-15T19:54:00;102481.84;;;6.63;76.97
74778;BME280;63298;53.164;8.610;2023-02-15T19:56:26;102482.69;;;6.64;77.28
74778;BME280;63298;53.164;8.610;2023-02-15T19:58:51;102476.50;;;6.62;76.76
74778;BME280;63298;53.164;8.610;2023-02-15T20:01:17;102477.56;;;6.61;77.05
74778;BME280;63298;53.164;8.610;2023-02-15T20:03:43;102477.03;;;6.57;77.14
74778;BME280;63298;53.164;8.610;2023-02-15T20:06:14;102475.16;;;6.58;77.14
74778;BME280;63298;53.164;8.610;2023-02-15T20:08:40;102479.78;;;6.57;76.93
74778;BME280;63298;53.164;8.610;2023-02-15T20:11:10;102471.03;;;6.54;77.83
74778;BME280;63298;53.164;8.610;2023-02-15T20:13:36;102476.69;;;6.52;76.95
74778;BME280;63298;53.164;8.610;2023-02-15T20:16:01;102474.13;;;6.50;76.96
74778;BME280;63298;53.164;8.610;2023-02-15T20:18:27;102465.38;;;6.47;77.09
74778;BME280;63298;53.164;8.610;2023-02-15T20:20:53;102482.69;;;6.47;76.90
74778;BME280;63298;53.164;8.610;2023-02-15T20:23:22;102477.72;;;6.43;77.20
74778;BME280;63298;53.164;8.610;2023-02-15T20:25:49;102478.72;;;6.42;77.30
74778;BME280;63298;53.164;8.610;2023-02-15T20:28:21;102475.63;;;6.37;77.11
74778;BME280;63298;53.164;8.610;2023-02-15T20:30:47;102475.13;;;6.33;77.60
74778;BME280;63298;53.164;8.610;2023-02-15T20:33:13;102481.31;;;6.35;77.40
74778;BME280;63298;53.164;8.610;2023-02-15T20:35:39;102484.06;;;6.35;77.31
74778;BME280;63298;53.164;8.610;2023-02-15T20:38:05;102474.63;;;6.30;77.20
74778;BME280;63298;53.164;8.610;2023-02-15T20:40:33;102481.63;;;6.24;77.75
74778;BME280;63298;53.164;8.610;2023-02-15T20:42:59;102481.78;;;6.23;77.64
74778;BME280;63298;53.164;8.610;2023-02-15T20:45:30;102487.47;;;6.21;77.60
74778;BME280;63298;53.164;8.610;2023-02-15T20:47:56;102483.31;;;6.17;77.84
74778;BME280;63298;53.164;8.610;2023-02-15T20:50:24;102479.19;;;6.13;78.01
74778;BME280;63298;53.164;8.610;2023-02-15T20:52:52;102485.88;;;6.11;77.72
74778;BME280;63298;53.164;8.610;2023-02-15T20:55:21;102483.97;;;6.03;77.41
74778;BME280;63298;53.164;8.610;2023-02-15T20:57:47;102484.31;;;6.00;78.02
74778;BME280;63298;53.164;8.610;2023-02-15T21:00:17;102488.06;;;5.99;77.79
74778;BME280;63298;53.164;8.610;2023-02-15T21:02:43;102478.47;;;5.95;77.67
74778;BME280;63298;53.164;8.610;2023-02-15T21:08:31;102467.31;;;5.88;77.37
74778;BME280;63298;53.164;8.610;2023-02-15T21:10:57;102470.53;;;5.84;77.68